sensor_id;sensor_type;location;lat;lon;timestamp;noise_LAeq;noise_LA_min;noise_LA_max;noise_LA01;noise_LA95
37163;Laerm;23057;48.554;14.454;2023-04-15T00:01:10;49.99;49.00;51.28;;
37163;Laerm;23057;48.554;14.454;2023-04-15T00:03:42;49.99;48.95;52.44;;
37163;Laerm;23057;48.554;14.454;2023-04-15T00:06:13;49.99;48.92;51.93;;
37163;Laerm;23057;48.554;14.454;2023-04-15T00:08:45;49.97;48.91;51.19;;
37163;Laerm;23057;48.554;14.454;2023-04-15T00:11:16;49.99;48.99;51.23;;
37163;Laerm;23057;48.554;14.454;2023-04-15T00:13:47;49.98;48.83;51.08;;
37163;Laerm;23057;48.554;14.454;2023-04-15T00:16:18;49.99;48.85;51.99;;
37163;Laerm;23057;48.554;14.454;2023-04-15T00:18:49;49.95;48.94;51.02;;
37163;Laerm;23057;48.554;14.454;2023-04-15T00:21:21;49.94;48.94;51.26;;
37163;Laerm;23057;48.554;14.454;2023-04-15T00:23:51;49.95;48.83;51.71;;
37163;Laerm;23057;48.554;14.454;2023-04-15T00:26:23;49.95;48.84;51.84;;
37163;Laerm;23057;48.554;14.454;2023-04-15T00:28:53;49.95;48.88;51.49;;
37163;Laerm;23057;48.554;14.454;2023-04-15T00:31:24;49.96;48.87;51.07;;
37163;Laerm;23057;48.554;14.454;2023-04-15T00:33:55;49.94;48.84;51.65;;
37163;Laerm;23057;48.554;14.454;2023-04-15T00:36:26;49.94;48.66;51.93;;
37163;Laerm;23057;48.554;14.454;2023-04-15T00:38:57;49.94;48.80;51.53;;
37163;Laerm;23057;48.554;14.454;2023-04-15T00:41:28;49.94;48.88;50.79;;
37163;Laerm;23057;48.554;14.454;2023-04-15T00:44:00;49.95;48.90;51.08;;
37163;Laerm;23057;48.554;14.454;2023-04-15T00:46:34;49.95;48.99;51.76;;
37163;Laerm;23057;48.554;14.454;2023-04-15T00:49:06;49.94;48.67;51.37;;
37163;Laerm;23057;48.554;14.454;2023-04-15T00:51:37;49.95;48.98;51.24;;
37163;Laerm;23057;48.554;14.454;2023-04-15T00:54:08;49.94;48.91;51.92;;
37163;Laerm;23057;48.554;14.454;2023-04-15T00:56:39;49.95;48.77;51.75;;
37163;Laerm;23057;48.554;14.454;2023-04-15T00:59:10;49.96;48.77;51.27;;
37163;Laerm;23057;48.554;14.454;2023-04-15T01:01:43;49.95;48.60;51.49;;
37163;Laerm;23057;48.554;14.454;2023-04-15T01:04:15;49.96;48.91;51.46;;
37163;Laerm;23057;48.554;14.454;2023-04-15T01:06:45;49.95;48.79;51.80;;
37163;Laerm;23057;48.554;14.454;2023-04-15T01:09:16;49.95;49.00;51.98;;
37163;Laerm;23057;48.554;14.454;2023-04-15T01:11:47;49.96;48.91;51.05;;
37163;Laerm;23057;48.554;14.454;2023-04-15T01:14:18;49.95;48.96;50.98;;
37163;Laerm;23057;48.554;14.454;2023-04-15T01:16:49;49.96;48.87;51.18;;
37163;Laerm;23057;48.554;14.454;2023-04-15T01:19:20;49.96;48.73;51.95;;
37163;Laerm;23057;48.554;14.454;2023-04-15T01:21:51;49.98;48.96;51.34;;
37163;Laerm;23057;48.554;14.454;2023-04-15T01:24:25;49.96;48.90;51.32;;
37163;Laerm;23057;48.554;14.454;2023-04-15T01:26:57;49.96;48.95;52.56;;
37163;Laerm;23057;48.554;14.454;2023-04-15T01:29:31;49.96;48.81;51.25;;
37163;Laerm;23057;48.554;14.454;2023-04-15T01:32:02;49.97;48.80;51.18;;
37163;Laerm;23057;48.554;14.454;2023-04-15T01:34:33;49.96;48.81;51.47;;
37163;Laerm;23057;48.554;14.454;2023-04-15T01:37:04;49.96;48.67;51.06;;
37163;Laerm;23057;48.554;14.454;2023-04-15T01:39:35;49.96;48.85;51.36;;
37163;Laerm;23057;48.554;14.454;2023-04-15T01:42:06;49.96;48.76;50.98;;
37163;Laerm;23057;48.554;14.454;2023-04-15T01:44:37;49.96;48.91;52.42;;
37163;Laerm;23057;48.554;14.454;2023-04-15T01:47:07;49.95;48.85;51.17;;
37163;Laerm;23057;48.554;14.454;2023-04-15T01:49:38;49.96;48.94;51.27;;
37163;Laerm;23057;48.554;14.454;2023-04-15T01:52:09;49.96;48.64;51.46;;
37163;Laerm;23057;48.554;14.454;2023-04-15T01:54:40;49.96;48.94;51.87;;
37163;Laerm;23057;48.554;14.454;2023-04-15T01:57:11;49.96;48.85;51.06;;
37163;Laerm;23057;48.554;14.454;2023-04-15T01:59:42;49.96;48.58;51.02;;
37163;Laerm;23057;48.554;14.454;2023-04-15T02:02:13;49.97;48.85;51.18;;
37163;Laerm;23057;48.554;14.454;2023-04-15T02:04:44;49.96;48.92;51.98;;
37163;Laerm;23057;48.554;14.454;2023-04-15T02:07:15;49.96;48.91;51.45;;
37163;Laerm;23057;48.554;14.454;2023-04-15T02:09:46;49.95;48.84;51.62;;
37163;Laerm;23057;48.554;14.454;2023-04-15T02:12:17;49.96;48.92;50.96;;
37163;Laerm;23057;48.554;14.454;2023-04-15T02:14:47;49.96;48.84;51.92;;
37163;Laerm;23057;48.554;14.454;2023-04-15T02:17:18;49.95;48.88;51.08;;
37163;Laerm;23057;48.554;14.454;2023-04-15T02:19:49;49.95;48.87;51.23;;
37163;Laerm;23057;48.554;14.454;2023-04-15T02:22:20;49.96;48.84;51.41;;
37163;Laerm;23057;48.554;14.454;2023-04-15T02:24:51;49.95;48.94;52.71;;
37163;Laerm;23057;48.554;14.454;2023-04-15T02:27:21;49.95;48.88;51.08;;
37163;Laerm;23057;48.554;14.454;2023-04-15T02:29:52;50.00;48.91;51.37;;
37163;Laerm;23057;48.554;14.454;2023-04-15T02:32:23;50.01;48.94;51.05;;
37163;Laerm;23057;48.554;14.454;2023-04-15T02:34:54;50.00;48.94;52.26;;
37163;Laerm;23057;48.554;14.454;2023-04-15T02:37:24;49.99;48.83;51.23;;
37163;Laerm;23057;48.554;14.454;2023-04-15T02:39:58;50.00;48.96;51.39;;
37163;Laerm;23057;48.554;14.454;2023-04-15T02:42:29;49.99;48.99;51.12;;
37163;Laerm;23057;48.554;14.454;2023-04-15T02:45:01;50.00;48.80;51.75;;
37163;Laerm;23057;48.554;14.454;2023-04-15T02:47:35;49.99;48.91;52.45;;
37163;Laerm;23057;48.554;14.454;2023-04-15T02:50:12;49.99;49.00;51.77;;
37163;Laerm;23057;48.554;14.454;2023-04-15T02:52:43;50.00;48.99;51.47;;
37163;Laerm;23057;48.554;14.454;2023-04-15T02:55:14;50.01;48.90;52.22;;
37163;Laerm;23057;48.554;14.454;2023-04-15T02:57:45;50.00;49.03;51.15;;
37163;Laerm;23057;48.554;14.454;2023-04-15T03:00:16;50.01;48.91;51.46;;
37163;Laerm;23057;48.554;14.454;2023-04-15T03:02:46;50.00;48.83;51.31;;
37163;Laerm;23057;48.554;14.454;2023-04-15T03:05:19;49.99;48.94;51.91;;
37163;Laerm;23057;48.554;14.454;2023-04-15T03:07:50;50.00;48.77;51.47;;
37163;Laerm;23057;48.554;14.454;2023-04-15T03:10:21;49.99;49.00;51.77;;
37163;Laerm;23057;48.554;14.454;2023-04-15T03:12:52;49.99;48.96;51.35;;
37163;Laerm;23057;48.554;14.454;2023-04-15T03:15:23;49.99;48.90;52.13;;
37163;Laerm;23057;48.554;14.454;2023-04-15T03:17:54;50.00;48.95;51.11;;
37163;Laerm;23057;48.554;14.454;2023-04-15T03:20:24;50.00;48.87;51.53;;
37163;Laerm;23057;48.554;14.454;2023-04-15T03:22:55;50.00;48.90;51.66;;
37163;Laerm;23057;48.554;14.454;2023-04-15T03:25:26;50.00;48.94;52.06;;
37163;Laerm;23057;48.554;14.454;2023-04-15T03:27:57;50.01;48.83;51.44;;
37163;Laerm;23057;48.554;14.454;2023-04-15T03:30:27;50.01;48.92;51.25;;
37163;Laerm;23057;48.554;14.454;2023-04-15T03:32:58;50.02;48.95;51.67;;
37163;Laerm;23057;48.554;14.454;2023-04-15T03:35:29;50.02;48.85;52.25;;
37163;Laerm;23057;48.554;14.454;2023-04-15T03:38:00;50.02;48.87;51.40;;
37163;Laerm;23057;48.554;14.454;2023-04-15T03:40:31;50.03;48.91;51.69;;
37163;Laerm;23057;48.554;14.454;2023-04-15T03:43:02;50.02;48.91;52.53;;
37163;Laerm;23057;48.554;14.454;2023-04-15T03:45:32;50.00;48.87;53.21;;
37163;Laerm;23057;48.554;14.454;2023-04-15T03:48:04;49.99;48.95;51.03;;
37163;Laerm;23057;48.554;14.454;2023-04-15T03:50:35;49.99;48.88;51.07;;
37163;Laerm;23057;48.554;14.454;2023-04-15T03:53:05;49.98;48.96;51.75;;
37163;Laerm;23057;48.554;14.454;2023-04-15T03:55:36;49.99;48.60;52.02;;
37163;Laerm;23057;48.554;14.454;2023-04-15T03:58:07;49.99;48.90;51.17;;
37163;Laerm;23057;48.554;14.454;2023-04-15T04:00:39;50.00;48.92;52.34;;
37163;Laerm;23057;48.554;14.454;2023-04-15T04:03:10;50.01;48.98;51.91;;
37163;Laerm;23057;48.554;14.454;2023-04-15T04:05:41;50.00;48.76;51.56;;
37163;Laerm;23057;48.554;14.454;2023-04-15T04:08:13;50.01;48.76;51.23;;
37163;Laerm;23057;48.554;14.454;2023-04-15T04:10:45;50.03;48.88;52.25;;
37163;Laerm;23057;48.554;14.454;2023-04-15T04:13:16;50.01;48.95;51.77;;
37163;Laerm;23057;48.554;14.454;2023-04-15T04:15:47;50.02;49.00;51.90;;
37163;Laerm;23057;48.554;14.454;2023-04-15T04:18:18;50.01;48.90;51.40;;
37163;Laerm;23057;48.554;14.454;2023-04-15T04:20:49;50.02;49.02;51.11;;
37163;Laerm;23057;48.554;14.454;2023-04-15T04:23:19;50.01;48.78;51.54;;
37163;Laerm;23057;48.554;14.454;2023-04-15T04:25:50;50.02;48.95;52.49;;
37163;Laerm;23057;48.554;14.454;2023-04-15T04:28:22;49.99;48.90;52.04;;
37163;Laerm;23057;48.554;14.454;2023-04-15T04:30:53;50.01;48.81;51.19;;
37163;Laerm;23057;48.554;14.454;2023-04-15T04:33:23;50.01;48.70;51.99;;
37163;Laerm;23057;48.554;14.454;2023-04-15T04:35:54;50.00;48.81;51.48;;
37163;Laerm;23057;48.554;14.454;2023-04-15T04:38:25;49.99;49.00;51.75;;
37163;Laerm;23057;48.554;14.454;2023-04-15T04:40:56;50.00;48.87;51.47;;
37163;Laerm;23057;48.554;14.454;2023-04-15T04:43:27;50.00;48.98;51.03;;
37163;Laerm;23057;48.554;14.454;2023-04-15T04:45:57;50.01;48.69;51.34;;
37163;Laerm;23057;48.554;14.454;2023-04-15T04:48:28;50.00;48.81;51.04;;
37163;Laerm;23057;48.554;14.454;2023-04-15T04:50:59;49.99;48.87;51.24;;
37163;Laerm;23057;48.554;14.454;2023-04-15T04:53:30;50.01;48.91;51.22;;
37163;Laerm;23057;48.554;14.454;2023-04-15T04:56:01;50.00;48.99;51.97;;
37163;Laerm;23057;48.554;14.454;2023-04-15T04:58:31;50.00;48.77;51.73;;
37163;Laerm;23057;48.554;14.454;2023-04-15T05:01:02;49.99;48.92;51.19;;
37163;Laerm;23057;48.554;14.454;2023-04-15T05:03:34;49.98;48.76;51.72;;
37163;Laerm;23057;48.554;14.454;2023-04-15T05:06:05;49.99;49.00;51.72;;
37163;Laerm;23057;48.554;14.454;2023-04-15T05:08:38;50.00;48.96;51.55;;
37163;Laerm;23057;48.554;14.454;2023-04-15T05:11:10;50.02;49.00;52.39;;
37163;Laerm;23057;48.554;14.454;2023-04-15T05:13:40;50.01;48.88;51.12;;
37163;Laerm;23057;48.554;14.454;2023-04-15T05:16:11;50.02;49.02;52.15;;
37163;Laerm;23057;48.554;14.454;2023-04-15T05:18:42;50.01;48.78;51.27;;
37163;Laerm;23057;48.554;14.454;2023-04-15T05:21:13;50.01;49.02;51.91;;
37163;Laerm;23057;48.554;14.454;2023-04-15T05:23:44;50.01;48.85;51.61;;
37163;Laerm;23057;48.554;14.454;2023-04-15T05:26:14;50.01;48.94;51.63;;
37163;Laerm;23057;48.554;14.454;2023-04-15T05:28:45;50.02;48.88;51.52;;
37163;Laerm;23057;48.554;14.454;2023-04-15T05:31:17;50.02;49.03;51.50;;
37163;Laerm;23057;48.554;14.454;2023-04-15T05:33:48;50.00;48.60;51.52;;
37163;Laerm;23057;48.554;14.454;2023-04-15T05:36:18;49.98;48.85;51.89;;
37163;Laerm;23057;48.554;14.454;2023-04-15T05:38:49;49.96;48.77;51.54;;
37163;Laerm;23057;48.554;14.454;2023-04-15T05:41:20;49.97;48.83;51.87;;
37163;Laerm;23057;48.554;14.454;2023-04-15T05:43:51;49.96;48.99;51.08;;
37163;Laerm;23057;48.554;14.454;2023-04-15T05:46:21;49.97;48.84;51.87;;
37163;Laerm;23057;48.554;14.454;2023-04-15T05:48:52;49.96;48.83;51.25;;
37163;Laerm;23057;48.554;14.454;2023-04-15T05:51:23;49.95;48.87;50.96;;
37163;Laerm;23057;48.554;14.454;2023-04-15T05:53:54;49.96;48.96;51.07;;
37163;Laerm;23057;48.554;14.454;2023-04-15T05:56:25;49.96;48.95;51.82;;
37163;Laerm;23057;48.554;14.454;2023-04-15T05:58:56;49.95;48.98;51.08;;
37163;Laerm;23057;48.554;14.454;2023-04-15T06:01:27;49.96;48.95;52.96;;
37163;Laerm;23057;48.554;14.454;2023-04-15T06:03:58;49.95;48.73;51.13;;
37163;Laerm;23057;48.554;14.454;2023-04-15T06:06:28;49.96;48.83;51.45;;
37163;Laerm;23057;48.554;14.454;2023-04-15T06:08:59;49.96;49.04;51.67;;
37163;Laerm;23057;48.554;14.454;2023-04-15T06:11:30;49.95;48.94;50.93;;
37163;Laerm;23057;48.554;14.454;2023-04-15T06:14:01;49.93;48.79;51.09;;
37163;Laerm;23057;48.554;14.454;2023-04-15T06:16:31;49.94;48.85;51.87;;
37163;Laerm;23057;48.554;14.454;2023-04-15T06:19:02;49.93;48.94;50.92;;
37163;Laerm;23057;48.554;14.454;2023-04-15T06:21:33;49.92;48.64;51.16;;
37163;Laerm;23057;48.554;14.454;2023-04-15T06:24:04;49.91;48.90;51.72;;
37163;Laerm;23057;48.554;14.454;2023-04-15T06:26:35;49.92;48.90;52.14;;
37163;Laerm;23057;48.554;14.454;2023-04-15T06:29:06;49.91;48.95;51.17;;
37163;Laerm;23057;48.554;14.454;2023-04-15T06:31:36;49.92;48.67;51.03;;
37163;Laerm;23057;48.554;14.454;2023-04-15T06:34:07;49.94;48.78;51.22;;
37163;Laerm;23057;48.554;14.454;2023-04-15T06:36:38;49.94;48.81;52.08;;
37163;Laerm;23057;48.554;14.454;2023-04-15T06:39:09;49.94;48.81;51.17;;
37163;Laerm;23057;48.554;14.454;2023-04-15T06:41:40;49.93;48.94;51.37;;
37163;Laerm;23057;48.554;14.454;2023-04-15T06:44:11;49.94;48.66;51.21;;
37163;Laerm;23057;48.554;14.454;2023-04-15T06:46:42;49.94;48.87;52.44;;
37163;Laerm;23057;48.554;14.454;2023-04-15T06:49:12;49.94;48.91;50.99;;
37163;Laerm;23057;48.554;14.454;2023-04-15T06:51:43;49.95;48.85;51.24;;
37163;Laerm;23057;48.554;14.454;2023-04-15T06:54:14;49.95;48.67;50.95;;
37163;Laerm;23057;48.554;14.454;2023-04-15T06:56:45;49.94;48.94;51.36;;
37163;Laerm;23057;48.554;14.454;2023-04-15T06:59:15;49.94;48.88;51.19;;
37163;Laerm;23057;48.554;14.454;2023-04-15T07:01:46;49.95;48.84;51.28;;
37163;Laerm;23057;48.554;14.454;2023-04-15T07:04:17;49.95;48.84;50.92;;
37163;Laerm;23057;48.554;14.454;2023-04-15T07:06:48;49.95;48.87;52.80;;
37163;Laerm;23057;48.554;14.454;2023-04-15T07:09:19;49.96;48.96;51.08;;
37163;Laerm;23057;48.554;14.454;2023-04-15T07:11:50;49.98;49.00;51.79;;
37163;Laerm;23057;48.554;14.454;2023-04-15T07:14:21;49.96;48.94;50.89;;
37163;Laerm;23057;48.554;14.454;2023-04-15T07:16:51;49.94;48.88;52.08;;
37163;Laerm;23057;48.554;14.454;2023-04-15T07:19:22;49.94;48.93;51.20;;
37163;Laerm;23057;48.554;14.454;2023-04-15T07:21:53;49.97;48.48;52.05;;
37163;Laerm;23057;48.554;14.454;2023-04-15T07:24:24;49.96;48.90;52.66;;
37163;Laerm;23057;48.554;14.454;2023-04-15T07:26:56;49.99;48.85;52.02;;
37163;Laerm;23057;48.554;14.454;2023-04-15T07:29:27;49.98;49.03;51.33;;
37163;Laerm;23057;48.554;14.454;2023-04-15T07:31:58;49.98;48.80;51.33;;
37163;Laerm;23057;48.554;14.454;2023-04-15T07:34:29;49.98;48.92;51.51;;
37163;Laerm;23057;48.554;14.454;2023-04-15T07:37:00;49.98;48.78;51.77;;
37163;Laerm;23057;48.554;14.454;2023-04-15T07:39:30;49.97;48.87;51.33;;
37163;Laerm;23057;48.554;14.454;2023-04-15T07:42:02;49.98;48.87;51.91;;
37163;Laerm;23057;48.554;14.454;2023-04-15T07:44:33;49.98;48.61;52.48;;
37163;Laerm;23057;48.554;14.454;2023-04-15T07:47:04;49.96;48.83;51.96;;
37163;Laerm;23057;48.554;14.454;2023-04-15T07:49:35;49.96;48.69;51.73;;
37163;Laerm;23057;48.554;14.454;2023-04-15T07:52:06;49.97;48.94;51.40;;
37163;Laerm;23057;48.554;14.454;2023-04-15T07:54:36;49.96;48.80;52.31;;
37163;Laerm;23057;48.554;14.454;2023-04-15T07:57:07;49.98;48.83;51.14;;
37163;Laerm;23057;48.554;14.454;2023-04-15T07:59:38;49.99;49.07;52.50;;
37163;Laerm;23057;48.554;14.454;2023-04-15T08:02:10;49.98;48.67;53.10;;
37163;Laerm;23057;48.554;14.454;2023-04-15T08:04:41;49.96;48.76;51.17;;
37163;Laerm;23057;48.554;14.454;2023-04-15T08:07:11;49.93;48.96;50.97;;
37163;Laerm;23057;48.554;14.454;2023-04-15T08:09:43;49.94;48.80;51.37;;
37163;Laerm;23057;48.554;14.454;2023-04-15T08:12:14;49.94;48.87;51.36;;
37163;Laerm;23057;48.554;14.454;2023-04-15T08:14:45;49.94;48.88;51.53;;
37163;Laerm;23057;48.554;14.454;2023-04-15T08:17:16;49.93;48.80;51.89;;
37163;Laerm;23057;48.554;14.454;2023-04-15T08:19:47;49.95;48.88;51.64;;
37163;Laerm;23057;48.554;14.454;2023-04-15T08:22:18;49.94;48.73;51.36;;
37163;Laerm;23057;48.554;14.454;2023-04-15T08:24:48;49.94;48.94;52.23;;
37163;Laerm;23057;48.554;14.454;2023-04-15T08:27:19;49.94;48.74;50.99;;
37163;Laerm;23057;48.554;14.454;2023-04-15T08:29:50;49.94;48.83;51.08;;
37163;Laerm;23057;48.554;14.454;2023-04-15T08:32:20;49.92;48.80;51.47;;
37163;Laerm;23057;48.554;14.454;2023-04-15T08:34:52;49.91;48.91;51.19;;
37163;Laerm;23057;48.554;14.454;2023-04-15T08:37:23;49.91;48.94;51.05;;
37163;Laerm;23057;48.554;14.454;2023-04-15T08:39:53;49.89;48.70;52.48;;
37163;Laerm;23057;48.554;14.454;2023-04-15T08:42:36;49.89;48.63;51.37;;
37163;Laerm;23057;48.554;14.454;2023-04-15T08:45:10;49.89;48.78;51.38;;
37163;Laerm;23057;48.554;14.454;2023-04-15T08:47:42;49.89;48.83;50.95;;
37163;Laerm;23057;48.554;14.454;2023-04-15T08:50:15;49.88;48.91;51.51;;
37163;Laerm;23057;48.554;14.454;2023-04-15T08:52:47;49.88;48.96;51.28;;
37163;Laerm;23057;48.554;14.454;2023-04-15T08:55:20;49.87;48.90;51.56;;
37163;Laerm;23057;48.554;14.454;2023-04-15T08:57:50;49.89;48.84;51.08;;
37163;Laerm;23057;48.554;14.454;2023-04-15T09:00:21;49.88;48.94;51.15;;
37163;Laerm;23057;48.554;14.454;2023-04-15T09:02:54;49.90;48.74;50.98;;
37163;Laerm;23057;48.554;14.454;2023-04-15T09:05:26;49.90;48.85;51.77;;
37163;Laerm;23057;48.554;14.454;2023-04-15T09:07:56;49.92;48.71;51.04;;
37163;Laerm;23057;48.554;14.454;2023-04-15T09:10:28;49.92;48.69;50.87;;
37163;Laerm;23057;48.554;14.454;2023-04-15T09:13:00;49.91;48.76;51.10;;
37163;Laerm;23057;48.554;14.454;2023-04-15T09:15:32;49.91;48.80;51.72;;
37163;Laerm;23057;48.554;14.454;2023-04-15T09:18:04;49.89;48.81;51.31;;
37163;Laerm;23057;48.554;14.454;2023-04-15T09:20:41;49.90;48.78;51.63;;
37163;Laerm;23057;48.554;14.454;2023-04-15T09:23:14;49.89;48.69;51.27;;
37163;Laerm;23057;48.554;14.454;2023-04-15T09:25:45;49.89;48.77;51.75;;
37163;Laerm;23057;48.554;14.454;2023-04-15T09:28:24;49.91;48.55;51.22;;
37163;Laerm;23057;48.554;14.454;2023-04-15T09:31:00;49.93;48.55;51.42;;
37163;Laerm;23057;48.554;14.454;2023-04-15T09:33:31;49.93;48.71;51.10;;
37163;Laerm;23057;48.554;14.454;2023-04-15T09:36:04;49.93;48.81;52.03;;
37163;Laerm;23057;48.554;14.454;2023-04-15T09:38:57;49.92;48.88;51.81;;
37163;Laerm;23057;48.554;14.454;2023-04-15T09:41:28;49.91;48.95;51.54;;
37163;Laerm;23057;48.554;14.454;2023-04-15T09:43:59;49.91;48.90;51.29;;
37163;Laerm;23057;48.554;14.454;2023-04-15T09:46:43;49.92;48.94;52.19;;
37163;Laerm;23057;48.554;14.454;2023-04-15T09:49:14;49.91;48.77;51.50;;
37163;Laerm;23057;48.554;14.454;2023-04-15T09:51:45;49.91;48.87;51.82;;
37163;Laerm;23057;48.554;14.454;2023-04-15T09:54:20;49.90;48.91;51.69;;
37163;Laerm;23057;48.554;14.454;2023-04-15T09:56:51;49.89;48.63;51.59;;
37163;Laerm;23057;48.554;14.454;2023-04-15T09:59:21;49.90;48.81;51.59;;
37163;Laerm;23057;48.554;14.454;2023-04-15T10:01:53;49.93;48.78;51.11;;
37163;Laerm;23057;48.554;14.454;2023-04-15T10:04:26;49.91;48.85;51.86;;
37163;Laerm;23057;48.554;14.454;2023-04-15T10:06:58;49.93;48.87;53.00;;
37163;Laerm;23057;48.554;14.454;2023-04-15T10:09:31;49.95;48.95;51.49;;
37163;Laerm;23057;48.554;14.454;2023-04-15T10:12:04;49.96;48.88;51.22;;
37163;Laerm;23057;48.554;14.454;2023-04-15T10:14:37;49.95;48.78;51.50;;
37163;Laerm;23057;48.554;14.454;2023-04-15T10:17:10;49.93;48.95;51.04;;
37163;Laerm;23057;48.554;14.454;2023-04-15T10:19:43;49.93;48.84;51.50;;
37163;Laerm;23057;48.554;14.454;2023-04-15T10:22:15;49.92;48.85;51.82;;
37163;Laerm;23057;48.554;14.454;2023-04-15T10:24:47;49.90;48.61;51.89;;
37163;Laerm;23057;48.554;14.454;2023-04-15T10:27:19;49.91;48.99;51.87;;
37163;Laerm;23057;48.554;14.454;2023-04-15T10:29:51;49.90;48.78;50.83;;
37163;Laerm;23057;48.554;14.454;2023-04-15T10:32:24;49.90;48.77;51.51;;
37163;Laerm;23057;48.554;14.454;2023-04-15T10:34:55;49.91;48.76;51.69;;
37163;Laerm;23057;48.554;14.454;2023-04-15T10:37:36;49.90;48.81;50.99;;
37163;Laerm;23057;48.554;14.454;2023-04-15T10:40:30;49.88;48.80;51.04;;
37163;Laerm;23057;48.554;14.454;2023-04-15T10:43:02;49.89;48.90;51.12;;
37163;Laerm;23057;48.554;14.454;2023-04-15T10:45:35;49.90;48.94;51.43;;
37163;Laerm;23057;48.554;14.454;2023-04-15T10:48:07;49.91;48.90;51.37;;
37163;Laerm;23057;48.554;14.454;2023-04-15T10:50:38;49.91;48.77;51.23;;
37163;Laerm;23057;48.554;14.454;2023-04-15T10:53:10;49.91;48.91;51.18;;
37163;Laerm;23057;48.554;14.454;2023-04-15T10:55:41;49.88;48.85;51.29;;
37163;Laerm;23057;48.554;14.454;2023-04-15T10:58:12;49.88;48.80;51.22;;
37163;Laerm;23057;48.554;14.454;2023-04-15T11:00:50;49.86;48.58;51.30;;
37163;Laerm;23057;48.554;14.454;2023-04-15T11:03:37;49.87;48.66;51.11;;
37163;Laerm;23057;48.554;14.454;2023-04-15T11:06:08;49.87;48.81;52.10;;
37163;Laerm;23057;48.554;14.454;2023-04-15T11:08:58;49.87;48.90;51.37;;
37163;Laerm;23057;48.554;14.454;2023-04-15T11:12:07;49.86;48.70;51.08;;
37163;Laerm;23057;48.554;14.454;2023-04-15T11:14:40;49.88;48.77;52.02;;
37163;Laerm;23057;48.554;14.454;2023-04-15T11:17:12;49.88;48.80;50.89;;
37163;Laerm;23057;48.554;14.454;2023-04-15T11:19:43;49.87;48.74;51.15;;
37163;Laerm;23057;48.554;14.454;2023-04-15T11:22:14;49.87;48.73;51.00;;
37163;Laerm;23057;48.554;14.454;2023-04-15T11:24:48;49.86;48.74;51.69;;
37163;Laerm;23057;48.554;14.454;2023-04-15T11:27:22;49.86;48.77;51.03;;
37163;Laerm;23057;48.554;14.454;2023-04-15T11:29:53;49.85;48.64;51.10;;
37163;Laerm;23057;48.554;14.454;2023-04-15T11:32:23;49.87;48.63;51.32;;
37163;Laerm;23057;48.554;14.454;2023-04-15T11:34:54;49.87;48.80;52.13;;
37163;Laerm;23057;48.554;14.454;2023-04-15T11:37:29;49.87;48.67;52.08;;
37163;Laerm;23057;48.554;14.454;2023-04-15T11:40:02;49.87;48.85;51.92;;
37163;Laerm;23057;48.554;14.454;2023-04-15T11:42:33;49.87;48.64;51.11;;
37163;Laerm;23057;48.554;14.454;2023-04-15T11:45:13;49.88;48.67;51.08;;
37163;Laerm;23057;48.554;14.454;2023-04-15T11:47:44;49.87;48.80;51.62;;
37163;Laerm;23057;48.554;14.454;2023-04-15T11:50:21;49.89;48.77;51.62;;
37163;Laerm;23057;48.554;14.454;2023-04-15T11:53:01;49.87;48.69;51.85;;
37163;Laerm;23057;48.554;14.454;2023-04-15T11:55:48;49.85;48.85;52.14;;
37163;Laerm;23057;48.554;14.454;2023-04-15T11:58:22;49.87;48.87;50.90;;
37163;Laerm;23057;48.554;14.454;2023-04-15T12:00:57;49.85;48.87;50.98;;
37163;Laerm;23057;48.554;14.454;2023-04-15T12:03:39;49.83;48.73;50.86;;
37163;Laerm;23057;48.554;14.454;2023-04-15T12:06:18;49.84;48.88;51.81;;
37163;Laerm;23057;48.554;14.454;2023-04-15T12:09:12;49.84;48.84;51.22;;
37163;Laerm;23057;48.554;14.454;2023-04-15T12:11:48;49.83;48.83;50.75;;
37163;Laerm;23057;48.554;14.454;2023-04-15T12:14:32;49.83;48.84;51.47;;
37163;Laerm;23057;48.554;14.454;2023-04-15T12:17:05;49.83;48.77;50.85;;
37163;Laerm;23057;48.554;14.454;2023-04-15T12:19:39;49.82;48.83;50.89;;
37163;Laerm;23057;48.554;14.454;2023-04-15T12:22:13;49.83;48.73;50.99;;
37163;Laerm;23057;48.554;14.454;2023-04-15T12:24:45;49.83;48.64;51.08;;
37163;Laerm;23057;48.554;14.454;2023-04-15T12:27:19;49.83;48.71;51.37;;
37163;Laerm;23057;48.554;14.454;2023-04-15T12:30:02;49.83;48.74;50.85;;
37163;Laerm;23057;48.554;14.454;2023-04-15T12:32:34;49.83;48.45;51.22;;
37163;Laerm;23057;48.554;14.454;2023-04-15T12:35:06;49.84;48.83;51.76;;
37163;Laerm;23057;48.554;14.454;2023-04-15T12:37:37;49.84;48.74;52.22;;
37163;Laerm;23057;48.554;14.454;2023-04-15T12:40:08;49.86;48.70;52.67;;
37163;Laerm;23057;48.554;14.454;2023-04-15T12:42:39;49.85;48.84;50.87;;
37163;Laerm;23057;48.554;14.454;2023-04-15T12:45:10;49.85;48.63;50.96;;
37163;Laerm;23057;48.554;14.454;2023-04-15T12:47:40;49.85;48.84;50.98;;
37163;Laerm;23057;48.554;14.454;2023-04-15T12:50:11;49.85;48.77;51.15;;
37163;Laerm;23057;48.554;14.454;2023-04-15T12:52:42;49.86;48.83;51.21;;
37163;Laerm;23057;48.554;14.454;2023-04-15T12:55:13;49.89;48.84;51.41;;
37163;Laerm;23057;48.554;14.454;2023-04-15T12:57:43;49.90;48.84;50.90;;
37163;Laerm;23057;48.554;14.454;2023-04-15T13:00:14;49.94;48.71;51.04;;
37163;Laerm;23057;48.554;14.454;2023-04-15T13:02:45;49.95;48.90;51.08;;
37163;Laerm;23057;48.554;14.454;2023-04-15T13:05:16;50.00;48.81;51.50;;
37163;Laerm;23057;48.554;14.454;2023-04-15T13:07:47;50.06;48.79;51.25;;
37163;Laerm;23057;48.554;14.454;2023-04-15T13:10:17;50.08;48.98;51.31;;
37163;Laerm;23057;48.554;14.454;2023-04-15T13:12:48;50.05;48.88;51.24;;
37163;Laerm;23057;48.554;14.454;2023-04-15T13:15:22;49.98;48.84;51.14;;
37163;Laerm;23057;48.554;14.454;2023-04-15T13:17:53;49.97;49.02;51.46;;
37163;Laerm;23057;48.554;14.454;2023-04-15T13:20:24;49.99;48.63;51.04;;
37163;Laerm;23057;48.554;14.454;2023-04-15T13:22:56;50.00;48.99;53.17;;
37163;Laerm;23057;48.554;14.454;2023-04-15T13:25:27;50.01;48.92;52.04;;
37163;Laerm;23057;48.554;14.454;2023-04-15T13:27:57;49.99;48.92;51.30;;
37163;Laerm;23057;48.554;14.454;2023-04-15T13:30:28;49.99;49.03;51.08;;
37163;Laerm;23057;48.554;14.454;2023-04-15T13:32:59;50.00;48.77;51.63;;
37163;Laerm;23057;48.554;14.454;2023-04-15T13:35:31;49.98;48.94;51.87;;
37163;Laerm;23057;48.554;14.454;2023-04-15T13:38:02;50.00;48.90;51.22;;
37163;Laerm;23057;48.554;14.454;2023-04-15T13:40:33;50.00;48.87;51.07;;
37163;Laerm;23057;48.554;14.454;2023-04-15T13:43:04;50.02;48.83;51.29;;
37163;Laerm;23057;48.554;14.454;2023-04-15T13:45:35;50.04;49.03;52.13;;
37163;Laerm;23057;48.554;14.454;2023-04-15T13:48:06;50.03;48.98;51.15;;
37163;Laerm;23057;48.554;14.454;2023-04-15T13:50:36;50.02;48.95;51.15;;
37163;Laerm;23057;48.554;14.454;2023-04-15T13:53:07;50.04;48.95;51.02;;
37163;Laerm;23057;48.554;14.454;2023-04-15T13:55:38;50.03;48.94;51.50;;
37163;Laerm;23057;48.554;14.454;2023-04-15T13:58:11;50.04;48.83;51.26;;